sensor_id;sensor_type;location;lat;lon;timestamp;temperature;humidity
43999;DHT22;51319;52.162;5.302;2022-08-16T00:01:21;21.20;77.50
43999;DHT22;51319;52.162;5.302;2022-08-16T00:03:50;21.20;77.70
43999;DHT22;51319;52.162;5.302;2022-08-16T00:06:17;21.10;77.90
43999;DHT22;51319;52.162;5.302;2022-08-16T00:08:45;21.10;77.90
43999;DHT22;51319;52.162;5.302;2022-08-16T00:11:12;21.00;77.90
43999;DHT22;51319;52.162;5.302;2022-08-16T00:13:42;21.00;78.10
43999;DHT22;51319;52.162;5.302;2022-08-16T00:16:21;20.90;78.10
43999;DHT22;51319;52.162;5.302;2022-08-16T00:19:07;20.90;78.20
43999;DHT22;51319;52.162;5.302;2022-08-16T00:21:34;20.90;78.20
43999;DHT22;51319;52.162;5.302;2022-08-16T00:24:00;20.90;78.30
43999;DHT22;51319;52.162;5.302;2022-08-16T00:26:30;20.90;78.30
43999;DHT22;51319;52.162;5.302;2022-08-16T00:29:14;20.80;78.40
43999;DHT22;51319;52.162;5.302;2022-08-16T00:31:43;20.80;78.50
43999;DHT22;51319;52.162;5.302;2022-08-16T00:34:26;20.80;78.50
43999;DHT22;51319;52.162;5.302;2022-08-16T00:37:13;20.80;78.50
43999;DHT22;51319;52.162;5.302;2022-08-16T00:39:45;20.80;78.60
43999;DHT22;51319;52.162;5.302;2022-08-16T00:42:14;20.70;78.60
43999;DHT22;51319;52.162;5.302;2022-08-16T00:45:04;20.70;78.70
43999;DHT22;51319;52.162;5.302;2022-08-16T00:47:38;20.60;78.70
43999;DHT22;51319;52.162;5.302;2022-08-16T00:50:14;20.60;78.80
43999;DHT22;51319;52.162;5.302;2022-08-16T00:52:42;20.60;79.00
43999;DHT22;51319;52.162;5.302;2022-08-16T00:55:18;20.50;79.10
43999;DHT22;51319;52.162;5.302;2022-08-16T00:57:49;20.50;79.30
43999;DHT22;51319;52.162;5.302;2022-08-16T01:00:27;20.40;79.50
43999;DHT22;51319;52.162;5.302;2022-08-16T01:02:56;20.40;79.40
43999;DHT22;51319;52.162;5.302;2022-08-16T01:05:24;20.40;79.30
43999;DHT22;51319;52.162;5.302;2022-08-16T01:07:53;20.40;79.60
43999;DHT22;51319;52.162;5.302;2022-08-16T01:10:21;20.40;79.90
43999;DHT22;51319;52.162;5.302;2022-08-16T01:13:20;20.30;79.90
43999;DHT22;51319;52.162;5.302;2022-08-16T01:15:52;20.30;80.20
43999;DHT22;51319;52.162;5.302;2022-08-16T01:18:21;20.30;80.20
43999;DHT22;51319;52.162;5.302;2022-08-16T01:24:18;20.20;80.50
43999;DHT22;51319;52.162;5.302;2022-08-16T01:27:19;20.20;80.70
43999;DHT22;51319;52.162;5.302;2022-08-16T01:30:00;20.20;80.80
43999;DHT22;51319;52.162;5.302;2022-08-16T01:32:29;20.20;80.90
43999;DHT22;51319;52.162;5.302;2022-08-16T01:35:00;20.10;80.60
43999;DHT22;51319;52.162;5.302;2022-08-16T01:37:26;20.10;80.50
43999;DHT22;51319;52.162;5.302;2022-08-16T01:40:04;20.00;81.00
43999;DHT22;51319;52.162;5.302;2022-08-16T01:42:33;20.00;81.20
43999;DHT22;51319;52.162;5.302;2022-08-16T01:44:59;20.00;81.40
43999;DHT22;51319;52.162;5.302;2022-08-16T01:47:27;20.00;81.60
43999;DHT22;51319;52.162;5.302;2022-08-16T01:49:54;20.00;81.80
43999;DHT22;51319;52.162;5.302;2022-08-16T01:52:41;20.00;81.90
43999;DHT22;51319;52.162;5.302;2022-08-16T02:00:53;19.90;82.20
43999;DHT22;51319;52.162;5.302;2022-08-16T02:03:20;19.90;82.30
43999;DHT22;51319;52.162;5.302;2022-08-16T02:05:52;19.80;82.40
43999;DHT22;51319;52.162;5.302;2022-08-16T02:08:18;19.80;82.60
43999;DHT22;51319;52.162;5.302;2022-08-16T02:11:01;19.80;82.80
43999;DHT22;51319;52.162;5.302;2022-08-16T02:13:29;19.70;82.80
43999;DHT22;51319;52.162;5.302;2022-08-16T02:15:58;19.70;83.00
43999;DHT22;51319;52.162;5.302;2022-08-16T02:23:44;19.70;83.50
43999;DHT22;51319;52.162;5.302;2022-08-16T02:26:11;19.60;83.60
43999;DHT22;51319;52.162;5.302;2022-08-16T02:28:44;19.70;84.40
43999;DHT22;51319;52.162;5.302;2022-08-16T02:31:13;19.70;83.90
43999;DHT22;51319;52.162;5.302;2022-08-16T02:33:41;19.60;83.90
43999;DHT22;51319;52.162;5.302;2022-08-16T02:36:16;19.60;84.00
43999;DHT22;51319;52.162;5.302;2022-08-16T02:39:04;19.60;84.10
43999;DHT22;51319;52.162;5.302;2022-08-16T02:41:32;19.60;84.20
43999;DHT22;51319;52.162;5.302;2022-08-16T02:44:05;19.60;84.30
43999;DHT22;51319;52.162;5.302;2022-08-16T02:46:32;19.60;84.40
43999;DHT22;51319;52.162;5.302;2022-08-16T02:49:00;19.50;84.50
43999;DHT22;51319;52.162;5.302;2022-08-16T02:51:27;19.50;84.70
43999;DHT22;51319;52.162;5.302;2022-08-16T02:53:57;19.50;84.80
43999;DHT22;51319;52.162;5.302;2022-08-16T02:56:23;19.50;85.00
43999;DHT22;51319;52.162;5.302;2022-08-16T02:58:58;19.40;84.90
43999;DHT22;51319;52.162;5.302;2022-08-16T03:01:28;19.40;85.00
43999;DHT22;51319;52.162;5.302;2022-08-16T03:04:03;19.40;85.20
43999;DHT22;51319;52.162;5.302;2022-08-16T03:06:50;19.30;85.30
43999;DHT22;51319;52.162;5.302;2022-08-16T03:09:23;19.30;85.40
43999;DHT22;51319;52.162;5.302;2022-08-16T03:11:50;19.30;85.50
43999;DHT22;51319;52.162;5.302;2022-08-16T03:14:17;19.20;85.60
43999;DHT22;51319;52.162;5.302;2022-08-16T03:16:51;19.20;85.70
43999;DHT22;51319;52.162;5.302;2022-08-16T03:19:28;19.20;85.80
43999;DHT22;51319;52.162;5.302;2022-08-16T03:22:13;19.20;85.90
43999;DHT22;51319;52.162;5.302;2022-08-16T03:24:54;19.10;85.80
43999;DHT22;51319;52.162;5.302;2022-08-16T03:27:24;19.10;85.90
43999;DHT22;51319;52.162;5.302;2022-08-16T03:29:50;19.10;86.10
43999;DHT22;51319;52.162;5.302;2022-08-16T03:32:20;19.10;86.20
43999;DHT22;51319;52.162;5.302;2022-08-16T03:34:46;19.00;86.30
43999;DHT22;51319;52.162;5.302;2022-08-16T03:37:15;19.00;86.50
43999;DHT22;51319;52.162;5.302;2022-08-16T03:39:42;19.00;86.70
43999;DHT22;51319;52.162;5.302;2022-08-16T03:42:09;19.00;86.80
43999;DHT22;51319;52.162;5.302;2022-08-16T03:44:35;18.90;86.90
43999;DHT22;51319;52.162;5.302;2022-08-16T03:47:13;18.90;86.90
43999;DHT22;51319;52.162;5.302;2022-08-16T03:49:46;18.90;87.00
43999;DHT22;51319;52.162;5.302;2022-08-16T03:52:21;18.90;87.10
43999;DHT22;51319;52.162;5.302;2022-08-16T03:54:50;18.80;87.00
43999;DHT22;51319;52.162;5.302;2022-08-16T03:57:24;18.70;87.00
43999;DHT22;51319;52.162;5.302;2022-08-16T03:59:58;18.70;87.30
43999;DHT22;51319;52.162;5.302;2022-08-16T04:02:26;18.70;87.50
43999;DHT22;51319;52.162;5.302;2022-08-16T04:04:57;18.70;87.70
43999;DHT22;51319;52.162;5.302;2022-08-16T04:07:23;18.70;87.70
43999;DHT22;51319;52.162;5.302;2022-08-16T04:09:50;18.70;87.70
43999;DHT22;51319;52.162;5.302;2022-08-16T04:12:18;18.60;87.70
43999;DHT22;51319;52.162;5.302;2022-08-16T04:15:07;18.60;87.90
43999;DHT22;51319;52.162;5.302;2022-08-16T04:17:33;18.50;88.10
43999;DHT22;51319;52.162;5.302;2022-08-16T04:20:01;18.50;88.30
43999;DHT22;51319;52.162;5.302;2022-08-16T04:22:49;18.50;88.30
43999;DHT22;51319;52.162;5.302;2022-08-16T04:25:16;18.50;88.40
43999;DHT22;51319;52.162;5.302;2022-08-16T04:27:42;18.50;88.60
43999;DHT22;51319;52.162;5.302;2022-08-16T04:30:22;18.50;88.80
43999;DHT22;51319;52.162;5.302;2022-08-16T04:33:01;18.40;88.80
43999;DHT22;51319;52.162;5.302;2022-08-16T04:35:30;18.40;89.00
43999;DHT22;51319;52.162;5.302;2022-08-16T04:38:00;18.50;89.00
43999;DHT22;51319;52.162;5.302;2022-08-16T04:40:36;18.40;89.00
43999;DHT22;51319;52.162;5.302;2022-08-16T04:43:03;18.40;89.00
43999;DHT22;51319;52.162;5.302;2022-08-16T04:45:30;18.50;89.20
43999;DHT22;51319;52.162;5.302;2022-08-16T04:48:02;18.50;89.10
43999;DHT22;51319;52.162;5.302;2022-08-16T04:50:29;18.50;89.10
43999;DHT22;51319;52.162;5.302;2022-08-16T04:52:57;18.50;89.00
43999;DHT22;51319;52.162;5.302;2022-08-16T04:55:26;18.50;89.10
43999;DHT22;51319;52.162;5.302;2022-08-16T04:58:04;18.50;89.00
43999;DHT22;51319;52.162;5.302;2022-08-16T05:00:51;18.60;88.90
43999;DHT22;51319;52.162;5.302;2022-08-16T05:03:18;18.60;88.70
43999;DHT22;51319;52.162;5.302;2022-08-16T05:05:46;18.60;88.80
43999;DHT22;51319;52.162;5.302;2022-08-16T05:08:31;18.60;88.80
43999;DHT22;51319;52.162;5.302;2022-08-16T05:10:59;18.70;88.80
43999;DHT22;51319;52.162;5.302;2022-08-16T05:13:32;18.70;88.80
43999;DHT22;51319;52.162;5.302;2022-08-16T05:16:18;18.80;88.70
43999;DHT22;51319;52.162;5.302;2022-08-16T05:18:50;18.80;88.70
43999;DHT22;51319;52.162;5.302;2022-08-16T05:21:18;18.90;88.50
43999;DHT22;51319;52.162;5.302;2022-08-16T05:23:49;18.90;88.20
43999;DHT22;51319;52.162;5.302;2022-08-16T05:26:25;19.00;88.30
43999;DHT22;51319;52.162;5.302;2022-08-16T05:28:54;19.20;88.10
43999;DHT22;51319;52.162;5.302;2022-08-16T05:31:23;19.30;87.70
43999;DHT22;51319;52.162;5.302;2022-08-16T05:33:57;19.30;87.30
43999;DHT22;51319;52.162;5.302;2022-08-16T05:36:23;19.40;87.00
43999;DHT22;51319;52.162;5.302;2022-08-16T05:39:00;19.30;86.90
43999;DHT22;51319;52.162;5.302;2022-08-16T05:41:27;19.40;86.80
43999;DHT22;51319;52.162;5.302;2022-08-16T05:43:56;19.40;86.70
43999;DHT22;51319;52.162;5.302;2022-08-16T05:46:30;19.40;86.70
43999;DHT22;51319;52.162;5.302;2022-08-16T05:48:58;19.40;86.70
43999;DHT22;51319;52.162;5.302;2022-08-16T05:51:34;19.50;86.80
43999;DHT22;51319;52.162;5.302;2022-08-16T05:54:05;19.60;86.50
43999;DHT22;51319;52.162;5.302;2022-08-16T05:56:31;19.90;86.30
43999;DHT22;51319;52.162;5.302;2022-08-16T05:58:59;20.00;85.20
43999;DHT22;51319;52.162;5.302;2022-08-16T06:01:27;20.20;85.00
43999;DHT22;51319;52.162;5.302;2022-08-16T06:06:30;21.00;82.80
43999;DHT22;51319;52.162;5.302;2022-08-16T06:08:56;21.30;81.20
43999;DHT22;51319;52.162;5.302;2022-08-16T06:11:23;21.70;79.90
43999;DHT22;51319;52.162;5.302;2022-08-16T06:13:51;22.10;78.60
43999;DHT22;51319;52.162;5.302;2022-08-16T06:16:21;22.40;77.40
43999;DHT22;51319;52.162;5.302;2022-08-16T06:18:47;22.80;76.30
43999;DHT22;51319;52.162;5.302;2022-08-16T06:21:16;23.10;75.10
43999;DHT22;51319;52.162;5.302;2022-08-16T06:23:49;23.50;73.70
43999;DHT22;51319;52.162;5.302;2022-08-16T06:26:20;23.80;72.40
43999;DHT22;51319;52.162;5.302;2022-08-16T06:28:47;24.20;71.30
43999;DHT22;51319;52.162;5.302;2022-08-16T06:31:15;24.40;70.20
43999;DHT22;51319;52.162;5.302;2022-08-16T06:33:42;24.80;69.20
43999;DHT22;51319;52.162;5.302;2022-08-16T06:36:11;25.10;68.00
43999;DHT22;51319;52.162;5.302;2022-08-16T06:38:40;25.30;67.00
43999;DHT22;51319;52.162;5.302;2022-08-16T06:41:22;25.50;66.10
43999;DHT22;51319;52.162;5.302;2022-08-16T06:43:53;25.90;65.70
43999;DHT22;51319;52.162;5.302;2022-08-16T06:46:23;26.10;64.60
43999;DHT22;51319;52.162;5.302;2022-08-16T06:48:58;26.30;63.90
43999;DHT22;51319;52.162;5.302;2022-08-16T06:51:24;26.70;62.90
43999;DHT22;51319;52.162;5.302;2022-08-16T06:54:11;27.00;61.80
43999;DHT22;51319;52.162;5.302;2022-08-16T06:56:40;27.30;60.80
43999;DHT22;51319;52.162;5.302;2022-08-16T06:59:07;27.50;59.80
43999;DHT22;51319;52.162;5.302;2022-08-16T07:01:35;27.80;59.00
43999;DHT22;51319;52.162;5.302;2022-08-16T07:04:19;28.10;58.40
43999;DHT22;51319;52.162;5.302;2022-08-16T07:06:59;28.50;57.30
43999;DHT22;51319;52.162;5.302;2022-08-16T07:09:25;28.80;56.60
43999;DHT22;51319;52.162;5.302;2022-08-16T07:11:56;29.10;55.50
43999;DHT22;51319;52.162;5.302;2022-08-16T07:14:29;29.30;54.80
43999;DHT22;51319;52.162;5.302;2022-08-16T07:16:56;29.40;54.10
43999;DHT22;51319;52.162;5.302;2022-08-16T07:19:26;29.60;53.70
43999;DHT22;51319;52.162;5.302;2022-08-16T07:22:14;29.90;53.10
43999;DHT22;51319;52.162;5.302;2022-08-16T07:25:01;30.20;52.30
43999;DHT22;51319;52.162;5.302;2022-08-16T07:27:27;30.60;51.40
43999;DHT22;51319;52.162;5.302;2022-08-16T07:29:57;30.80;50.80
43999;DHT22;51319;52.162;5.302;2022-08-16T07:32:24;31.10;50.30
43999;DHT22;51319;52.162;5.302;2022-08-16T07:34:55;31.40;49.80
43999;DHT22;51319;52.162;5.302;2022-08-16T07:37:21;31.80;49.90
43999;DHT22;51319;52.162;5.302;2022-08-16T07:39:48;32.10;48.40
43999;DHT22;51319;52.162;5.302;2022-08-16T07:42:16;32.50;47.20
43999;DHT22;51319;52.162;5.302;2022-08-16T07:44:55;32.80;46.60
43999;DHT22;51319;52.162;5.302;2022-08-16T07:47:23;33.20;45.60
43999;DHT22;51319;52.162;5.302;2022-08-16T07:49:57;33.30;45.00
43999;DHT22;51319;52.162;5.302;2022-08-16T07:52:24;33.50;44.40
43999;DHT22;51319;52.162;5.302;2022-08-16T07:54:56;33.70;44.10
43999;DHT22;51319;52.162;5.302;2022-08-16T07:57:23;33.90;43.10
43999;DHT22;51319;52.162;5.302;2022-08-16T07:59:50;33.90;42.40
43999;DHT22;51319;52.162;5.302;2022-08-16T08:02:18;34.20;41.90
43999;DHT22;51319;52.162;5.302;2022-08-16T08:04:46;34.40;42.00
43999;DHT22;51319;52.162;5.302;2022-08-16T08:07:13;34.60;41.90
43999;DHT22;51319;52.162;5.302;2022-08-16T08:09:42;35.00;41.70
43999;DHT22;51319;52.162;5.302;2022-08-16T08:12:09;35.20;41.20
43999;DHT22;51319;52.162;5.302;2022-08-16T08:14:55;35.60;40.80
43999;DHT22;51319;52.162;5.302;2022-08-16T08:17:22;35.90;40.10
43999;DHT22;51319;52.162;5.302;2022-08-16T08:19:48;36.10;39.90
43999;DHT22;51319;52.162;5.302;2022-08-16T08:22:19;36.40;40.30
43999;DHT22;51319;52.162;5.302;2022-08-16T08:24:48;36.50;39.20
43999;DHT22;51319;52.162;5.302;2022-08-16T08:27:14;36.80;39.00
43999;DHT22;51319;52.162;5.302;2022-08-16T08:29:49;37.20;38.30
43999;DHT22;51319;52.162;5.302;2022-08-16T08:32:35;37.60;37.50
43999;DHT22;51319;52.162;5.302;2022-08-16T08:35:22;38.10;37.20
43999;DHT22;51319;52.162;5.302;2022-08-16T08:37:52;38.20;36.40
43999;DHT22;51319;52.162;5.302;2022-08-16T08:40:24;38.50;37.90
43999;DHT22;51319;52.162;5.302;2022-08-16T08:43:11;38.60;37.00
43999;DHT22;51319;52.162;5.302;2022-08-16T08:45:44;38.90;36.50
43999;DHT22;51319;52.162;5.302;2022-08-16T08:48:15;39.00;35.70
43999;DHT22;51319;52.162;5.302;2022-08-16T08:51:05;39.30;35.00
43999;DHT22;51319;52.162;5.302;2022-08-16T08:53:35;39.30;35.10
43999;DHT22;51319;52.162;5.302;2022-08-16T08:56:03;39.60;35.20
43999;DHT22;51319;52.162;5.302;2022-08-16T08:58:51;39.90;34.80
43999;DHT22;51319;52.162;5.302;2022-08-16T09:01:24;40.20;34.30
43999;DHT22;51319;52.162;5.302;2022-08-16T09:04:03;40.40;33.90
43999;DHT22;51319;52.162;5.302;2022-08-16T09:06:30;40.60;33.40
43999;DHT22;51319;52.162;5.302;2022-08-16T09:09:00;40.60;33.50
43999;DHT22;51319;52.162;5.302;2022-08-16T09:11:27;40.70;33.50
43999;DHT22;51319;52.162;5.302;2022-08-16T09:14:06;41.20;33.50
43999;DHT22;51319;52.162;5.302;2022-08-16T09:16:50;41.60;33.00
43999;DHT22;51319;52.162;5.302;2022-08-16T09:19:37;41.80;32.70
43999;DHT22;51319;52.162;5.302;2022-08-16T09:22:08;42.00;32.80
43999;DHT22;51319;52.162;5.302;2022-08-16T09:24:48;42.20;31.90
43999;DHT22;51319;52.162;5.302;2022-08-16T09:27:22;42.10;31.70
43999;DHT22;51319;52.162;5.302;2022-08-16T09:29:51;42.40;31.90
43999;DHT22;51319;52.162;5.302;2022-08-16T09:32:27;42.50;31.70
43999;DHT22;51319;52.162;5.302;2022-08-16T09:34:58;42.50;31.30
43999;DHT22;51319;52.162;5.302;2022-08-16T09:37:26;42.70;31.50
43999;DHT22;51319;52.162;5.302;2022-08-16T09:40:05;43.00;31.00
43999;DHT22;51319;52.162;5.302;2022-08-16T09:42:51;42.80;30.80
43999;DHT22;51319;52.162;5.302;2022-08-16T09:45:25;42.80;31.20
43999;DHT22;51319;52.162;5.302;2022-08-16T09:47:54;42.70;31.40
43999;DHT22;51319;52.162;5.302;2022-08-16T09:50:25;41.90;31.40
43999;DHT22;51319;52.162;5.302;2022-08-16T09:53:07;41.90;32.00
43999;DHT22;51319;52.162;5.302;2022-08-16T09:55:44;42.40;31.50
43999;DHT22;51319;52.162;5.302;2022-08-16T09:58:17;42.60;31.10
43999;DHT22;51319;52.162;5.302;2022-08-16T10:01:03;43.00;30.70
43999;DHT22;51319;52.162;5.302;2022-08-16T10:03:30;43.10;30.90
43999;DHT22;51319;52.162;5.302;2022-08-16T10:05:57;42.90;31.00
43999;DHT22;51319;52.162;5.302;2022-08-16T10:08:24;42.60;30.80
43999;DHT22;51319;52.162;5.302;2022-08-16T10:10:52;42.20;31.10
43999;DHT22;51319;52.162;5.302;2022-08-16T10:13:38;42.20;31.50
43999;DHT22;51319;52.162;5.302;2022-08-16T10:16:06;42.60;31.40
43999;DHT22;51319;52.162;5.302;2022-08-16T10:18:35;42.80;30.80
43999;DHT22;51319;52.162;5.302;2022-08-16T10:21:22;42.50;31.00
43999;DHT22;51319;52.162;5.302;2022-08-16T10:23:49;42.00;31.80
43999;DHT22;51319;52.162;5.302;2022-08-16T10:26:21;42.20;31.80
43999;DHT22;51319;52.162;5.302;2022-08-16T10:29:09;42.60;31.20
43999;DHT22;51319;52.162;5.302;2022-08-16T10:31:35;42.50;31.80
43999;DHT22;51319;52.162;5.302;2022-08-16T10:39:20;41.90;32.00
43999;DHT22;51319;52.162;5.302;2022-08-16T10:47:38;42.90;31.30
43999;DHT22;51319;52.162;5.302;2022-08-16T10:50:06;42.80;30.80
43999;DHT22;51319;52.162;5.302;2022-08-16T10:52:45;42.60;31.20
43999;DHT22;51319;52.162;5.302;2022-08-16T10:55:15;42.70;31.60
43999;DHT22;51319;52.162;5.302;2022-08-16T10:58:13;42.90;31.80
43999;DHT22;51319;52.162;5.302;2022-08-16T11:03:31;42.80;31.20
43999;DHT22;51319;52.162;5.302;2022-08-16T11:06:10;42.40;31.60
43999;DHT22;51319;52.162;5.302;2022-08-16T11:08:38;41.50;31.90
43999;DHT22;51319;52.162;5.302;2022-08-16T11:11:11;41.00;32.50
43999;DHT22;51319;52.162;5.302;2022-08-16T11:13:46;40.30;33.20
43999;DHT22;51319;52.162;5.302;2022-08-16T11:30:16;36.90;38.00
43999;DHT22;51319;52.162;5.302;2022-08-16T11:32:45;37.30;38.30
43999;DHT22;51319;52.162;5.302;2022-08-16T11:35:17;37.80;38.00
43999;DHT22;51319;52.162;5.302;2022-08-16T11:38:06;38.80;37.20
43999;DHT22;51319;52.162;5.302;2022-08-16T11:40:57;39.60;35.50
43999;DHT22;51319;52.162;5.302;2022-08-16T11:43:30;40.30;35.10
43999;DHT22;51319;52.162;5.302;2022-08-16T11:45:58;40.80;34.60
43999;DHT22;51319;52.162;5.302;2022-08-16T11:48:45;41.10;34.40
43999;DHT22;51319;52.162;5.302;2022-08-16T11:51:12;41.40;33.90
43999;DHT22;51319;52.162;5.302;2022-08-16T11:53:39;41.70;33.80
43999;DHT22;51319;52.162;5.302;2022-08-16T11:56:06;42.00;32.70
43999;DHT22;51319;52.162;5.302;2022-08-16T12:04:01;43.10;32.00
43999;DHT22;51319;52.162;5.302;2022-08-16T12:06:30;43.70;32.00
43999;DHT22;51319;52.162;5.302;2022-08-16T12:15:18;42.90;30.90
43999;DHT22;51319;52.162;5.302;2022-08-16T12:18:17;41.60;31.90
43999;DHT22;51319;52.162;5.302;2022-08-16T12:26:22;39.30;34.70
43999;DHT22;51319;52.162;5.302;2022-08-16T12:31:24;38.60;35.80
43999;DHT22;51319;52.162;5.302;2022-08-16T12:45:12;36.10;38.20
43999;DHT22;51319;52.162;5.302;2022-08-16T12:47:38;35.60;38.80
43999;DHT22;51319;52.162;5.302;2022-08-16T13:13:41;34.20;40.80
43999;DHT22;51319;52.162;5.302;2022-08-16T13:16:08;34.20;41.20
43999;DHT22;51319;52.162;5.302;2022-08-16T13:18:47;34.20;40.60
43999;DHT22;51319;52.162;5.302;2022-08-16T13:21:20;34.30;40.60
43999;DHT22;51319;52.162;5.302;2022-08-16T13:23:50;34.50;41.10
43999;DHT22;51319;52.162;5.302;2022-08-16T13:26:21;34.80;40.10
43999;DHT22;51319;52.162;5.302;2022-08-16T13:28:47;35.10;40.00
43999;DHT22;51319;52.162;5.302;2022-08-16T13:31:13;35.10;39.70
43999;DHT22;51319;52.162;5.302;2022-08-16T13:33:42;35.10;39.70
43999;DHT22;51319;52.162;5.302;2022-08-16T13:36:10;35.10;39.50
43999;DHT22;51319;52.162;5.302;2022-08-16T13:38:57;34.90;39.20
43999;DHT22;51319;52.162;5.302;2022-08-16T13:41:24;34.70;40.70
43999;DHT22;51319;52.162;5.302;2022-08-16T13:43:56;34.70;39.80
43999;DHT22;51319;52.162;5.302;2022-08-16T13:46:25;35.00;39.70
43999;DHT22;51319;52.162;5.302;2022-08-16T13:48:52;35.20;39.50
43999;DHT22;51319;52.162;5.302;2022-08-16T13:51:18;35.40;38.90
43999;DHT22;51319;52.162;5.302;2022-08-16T13:53:47;35.20;39.10
43999;DHT22;51319;52.162;5.302;2022-08-16T13:56:25;35.00;39.50
43999;DHT22;51319;52.162;5.302;2022-08-16T14:01:43;34.80;39.20
43999;DHT22;51319;52.162;5.302;2022-08-16T14:04:10;34.70;39.10
43999;DHT22;51319;52.162;5.302;2022-08-16T14:06:46;34.40;39.80
43999;DHT22;51319;52.162;5.302;2022-08-16T14:11:50;33.80;40.80
43999;DHT22;51319;52.162;5.302;2022-08-16T14:14:20;33.60;41.30
43999;DHT22;51319;52.162;5.302;2022-08-16T14:16:56;33.40;42.10
43999;DHT22;51319;52.162;5.302;2022-08-16T14:21:59;32.90;43.00
43999;DHT22;51319;52.162;5.302;2022-08-16T14:24:42;32.80;43.80
43999;DHT22;51319;52.162;5.302;2022-08-16T14:27:16;32.60;43.80
43999;DHT22;51319;52.162;5.302;2022-08-16T14:29:44;32.60;44.50
43999;DHT22;51319;52.162;5.302;2022-08-16T14:32:16;32.50;44.50
43999;DHT22;51319;52.162;5.302;2022-08-16T14:37:54;32.70;44.10
43999;DHT22;51319;52.162;5.302;2022-08-16T14:40:23;32.70;45.10
43999;DHT22;51319;52.162;5.302;2022-08-16T14:45:40;32.70;45.30
43999;DHT22;51319;52.162;5.302;2022-08-16T14:56:32;32.30;45.90
43999;DHT22;51319;52.162;5.302;2022-08-16T14:59:08;32.30;46.40
43999;DHT22;51319;52.162;5.302;2022-08-16T15:01:42;32.30;47.10
43999;DHT22;51319;52.162;5.302;2022-08-16T15:04:29;32.30;47.10
43999;DHT22;51319;52.162;5.302;2022-08-16T15:07:05;32.20;47.70
43999;DHT22;51319;52.162;5.302;2022-08-16T15:09:42;32.10;47.50
43999;DHT22;51319;52.162;5.302;2022-08-16T15:15:08;31.90;47.80
43999;DHT22;51319;52.162;5.302;2022-08-16T15:17:40;31.90;47.70
43999;DHT22;51319;52.162;5.302;2022-08-16T15:23:03;31.90;47.40
43999;DHT22;51319;52.162;5.302;2022-08-16T15:25:44;31.80;47.70
43999;DHT22;51319;52.162;5.302;2022-08-16T15:31:06;31.80;47.70
43999;DHT22;51319;52.162;5.302;2022-08-16T15:42:20;31.60;48.40
43999;DHT22;51319;52.162;5.302;2022-08-16T15:44:54;31.50;49.80
43999;DHT22;51319;52.162;5.302;2022-08-16T15:47:24;31.30;49.80
43999;DHT22;51319;52.162;5.302;2022-08-16T15:49:56;31.30;51.00
43999;DHT22;51319;52.162;5.302;2022-08-16T16:06:48;30.70;52.50
43999;DHT22;51319;52.162;5.302;2022-08-16T16:17:56;30.60;53.00
43999;DHT22;51319;52.162;5.302;2022-08-16T16:20:24;30.60;52.70
43999;DHT22;51319;52.162;5.302;2022-08-16T16:23:01;30.60;52.60
43999;DHT22;51319;52.162;5.302;2022-08-16T16:28:20;30.70;52.00
43999;DHT22;51319;52.162;5.302;2022-08-16T16:31:11;30.70;51.50
43999;DHT22;51319;52.162;5.302;2022-08-16T16:39:04;30.80;51.00
43999;DHT22;51319;52.162;5.302;2022-08-16T16:41:34;30.80;51.00
43999;DHT22;51319;52.162;5.302;2022-08-16T16:44:07;30.80;51.50
43999;DHT22;51319;52.162;5.302;2022-08-16T16:52:38;30.90;50.70
43999;DHT22;51319;52.162;5.302;2022-08-16T16:55:12;30.80;51.20
43999;DHT22;51319;52.162;5.302;2022-08-16T16:57:38;30.80;51.30
43999;DHT22;51319;52.162;5.302;2022-08-16T17:03:15;30.60;51.20
43999;DHT22;51319;52.162;5.302;2022-08-16T17:05:45;30.50;52.10
43999;DHT22;51319;52.162;5.302;2022-08-16T17:19:47;29.80;54.40
43999;DHT22;51319;52.162;5.302;2022-08-16T17:22:17;29.70;55.00
43999;DHT22;51319;52.162;5.302;2022-08-16T17:31:04;29.20;56.60
43999;DHT22;51319;52.162;5.302;2022-08-16T17:33:33;29.10;57.00
43999;DHT22;51319;52.162;5.302;2022-08-16T17:36:19;29.00;57.10
43999;DHT22;51319;52.162;5.302;2022-08-16T17:39:03;28.80;57.30
43999;DHT22;51319;52.162;5.302;2022-08-16T17:41:29;28.70;57.50
43999;DHT22;51319;52.162;5.302;2022-08-16T17:43:56;28.60;57.60
43999;DHT22;51319;52.162;5.302;2022-08-16T17:46:23;28.50;58.50
43999;DHT22;51319;52.162;5.302;2022-08-16T17:49:09;28.40;58.30
43999;DHT22;51319;52.162;5.302;2022-08-16T17:51:36;28.30;58.80
43999;DHT22;51319;52.162;5.302;2022-08-16T17:54:04;28.20;59.20
43999;DHT22;51319;52.162;5.302;2022-08-16T17:56:32;28.10;59.50
43999;DHT22;51319;52.162;5.302;2022-08-16T17:58:59;28.10;59.70
43999;DHT22;51319;52.162;5.302;2022-08-16T18:01:28;28.00;59.80
43999;DHT22;51319;52.162;5.302;2022-08-16T18:03:54;27.90;59.80
43999;DHT22;51319;52.162;5.302;2022-08-16T18:06:35;27.90;60.80
43999;DHT22;51319;52.162;5.302;2022-08-16T18:09:01;27.80;60.30
43999;DHT22;51319;52.162;5.302;2022-08-16T18:11:30;27.70;60.40
43999;DHT22;51319;52.162;5.302;2022-08-16T18:14:00;27.60;60.60
43999;DHT22;51319;52.162;5.302;2022-08-16T18:16:26;27.50;60.60
43999;DHT22;51319;52.162;5.302;2022-08-16T18:18:52;27.40;60.90
43999;DHT22;51319;52.162;5.302;2022-08-16T18:21:18;27.40;60.90
43999;DHT22;51319;52.162;5.302;2022-08-16T18:24:03;27.30;61.00
43999;DHT22;51319;52.162;5.302;2022-08-16T18:26:30;27.20;61.10
43999;DHT22;51319;52.162;5.302;2022-08-16T18:28:57;27.20;61.50
43999;DHT22;51319;52.162;5.302;2022-08-16T18:31:24;27.10;62.10
43999;DHT22;51319;52.162;5.302;2022-08-16T18:33:50;27.00;61.90
43999;DHT22;51319;52.162;5.302;2022-08-16T18:36:21;27.00;62.20
43999;DHT22;51319;52.162;5.302;2022-08-16T18:38:49;26.90;61.60
43999;DHT22;51319;52.162;5.302;2022-08-16T18:41:17;26.90;62.20
43999;DHT22;51319;52.162;5.302;2022-08-16T18:43:43;26.70;62.40
43999;DHT22;51319;52.162;5.302;2022-08-16T18:46:32;26.60;62.50
43999;DHT22;51319;52.162;5.302;2022-08-16T18:48:59;26.50;62.60
43999;DHT22;51319;52.162;5.302;2022-08-16T18:51:26;26.50;62.70
43999;DHT22;51319;52.162;5.302;2022-08-16T18:53:53;26.40;62.70
43999;DHT22;51319;52.162;5.302;2022-08-16T18:56:20;26.30;62.80
43999;DHT22;51319;52.162;5.302;2022-08-16T18:58:47;26.30;63.20
43999;DHT22;51319;52.162;5.302;2022-08-16T19:01:13;26.20;63.00
43999;DHT22;51319;52.162;5.302;2022-08-16T19:03:40;26.20;63.20
43999;DHT22;51319;52.162;5.302;2022-08-16T19:06:10;26.10;63.30
43999;DHT22;51319;52.162;5.302;2022-08-16T19:08:41;26.10;63.60
43999;DHT22;51319;52.162;5.302;2022-08-16T19:11:14;26.00;63.70
43999;DHT22;51319;52.162;5.302;2022-08-16T19:13:41;25.90;63.90
43999;DHT22;51319;52.162;5.302;2022-08-16T19:16:12;25.90;64.20
43999;DHT22;51319;52.162;5.302;2022-08-16T19:18:39;25.80;64.40